TimeCDT,TemperatureF,Dew PointF,Humidity,Sea Level PressureIn,VisibilityMPH,Wind Direction,Wind SpeedMPH,Gust SpeedMPH,PrecipitationIn,Events,Conditions,WindDirDegrees,DateUTC
12:55 AM,39.9,32.0,73,30.09,10.0,North,11.5,-,N/A,,Clear,350,2012-11-03 05:55:00
1:55 AM,37.9,30.9,76,30.10,10.0,North,8.1,-,N/A,,Clear,350,2012-11-03 06:55:00
2:55 AM,37.0,30.9,79,30.12,10.0,NNW,9.2,-,N/A,,Clear,340,2012-11-03 07:55:00
3:55 AM,35.1,30.0,82,30.13,10.0,NNW,8.1,-,N/A,,Clear,330,2012-11-03 08:55:00
4:55 AM,34.0,30.0,85,30.14,10.0,NW,9.2,-,N/A,,Clear,320,2012-11-03 09:55:00
5:55 AM,34.0,30.0,85,30.18,10.0,NW,9.2,-,N/A,,Clear,310,2012-11-03 10:55:00
6:55 AM,33.1,30.0,89,30.20,8.0,NW,10.4,-,N/A,,Clear,320,2012-11-03 11:55:00
7:55 AM,33.1,30.0,89,30.21,8.0,NNW,10.4,-,N/A,,Clear,330,2012-11-03 12:55:00
8:55 AM,35.1,30.9,85,30.23,8.0,NW,10.4,-,N/A,,Clear,320,2012-11-03 13:55:00
9:55 AM,39.0,33.1,79,30.24,9.0,NNW,5.8,-,N/A,,Clear,340,2012-11-03 14:55:00
10:55 AM,44.1,33.1,65,30.24,10.0,North,9.2,-,N/A,,Clear,10,2012-11-03 15:55:00
11:55 AM,48.0,34.0,58,30.24,10.0,NNW,6.9,-,N/A,,Clear,340,2012-11-03 16:55:00
12:55 PM,53.1,35.1,50,30.22,10.0,North,6.9,-,N/A,,Clear,360,2012-11-03 17:55:00
1:55 PM,55.0,37.0,51,30.21,10.0,Variable,3.5,-,N/A,,Clear,0,2012-11-03 18:55:00
2:55 PM,57.9,37.9,47,30.18,10.0,NNE,6.9,-,N/A,,Clear,20,2012-11-03 19:55:00
3:55 PM,60.1,37.9,44,30.17,10.0,NW,4.6,-,N/A,,Clear,320,2012-11-03 20:55:00
4:55 PM,60.1,37.0,42,30.17,10.0,NNE,3.5,-,N/A,,Clear,20,2012-11-03 21:55:00
5:55 PM,57.0,37.9,49,30.17,10.0,Calm,Calm,-,N/A,,Clear,0,2012-11-03 22:55:00
6:55 PM,51.1,36.0,56,30.19,10.0,Calm,Calm,-,N/A,,Clear,0,2012-11-03 23:55:00
7:55 PM,48.9,35.1,59,30.20,10.0,Calm,Calm,-,N/A,,Clear,0,2012-11-04 00:55:00
8:55 PM,48.9,36.0,61,30.21,10.0,Calm,Calm,-,N/A,,Mostly Cloudy,0,2012-11-04 01:55:00
9:55 PM,45.0,35.1,68,30.21,10.0,SSE,4.6,-,N/A,,Clear,150,2012-11-04 02:55:00
10:55 PM,41.0,34.0,76,30.21,10.0,SSE,4.6,-,N/A,,Clear,150,2012-11-04 03:55:00
11:55 PM,43.0,34.0,71,30.20,10.0,SE,4.6,-,N/A,,Mostly Cloudy,140,2012-11-04 04:55:00